Time;durP1;ratioP1;P1;durP2;ratioP2;P2;SDS_P1;SDS_P2;PMS_P1;PMS_P2;Temp;Humidity;BMP_temperature;BMP_pressure;BME280_temperature;BME280_humidity;BME280_pressure;Samples;Min_cycle;Max_cycle;Signal;HPM_P1;HPM_P2
2022/03/30 00:02:14;;;;;;;19.70;12.07;;;10.70;66.50;;;;;;5096528;28;20456;-21
2022/03/30 00:04:40;;;;;;;29.73;17.50;;;10.70;66.80;;;;;;5096381;28;20064;-21
2022/03/30 00:07:07;;;;;;;29.48;17.40;;;10.70;67.40;;;;;;5094742;28;20078;-21
2022/03/30 00:09:32;;;;;;;23.40;14.30;;;10.60;67.70;;;;;;5096307;28;20028;-21
2022/03/30 00:11:59;;;;;;;18.50;11.32;;;10.60;67.10;;;;;;5095868;28;20408;-21
2022/03/30 00:14:25;;;;;;;23.75;13.02;;;10.60;67.10;;;;;;5095791;28;20526;-21
2022/03/30 00:16:51;;;;;;;21.02;12.52;;;10.60;67.20;;;;;;5094674;28;20027;-21
2022/03/30 00:19:18;;;;;;;25.58;13.63;;;10.60;66.90;;;;;;5096120;28;20476;-21
2022/03/30 00:21:45;;;;;;;21.15;12.48;;;10.60;66.40;;;;;;5096377;28;20051;-21
2022/03/30 00:24:11;;;;;;;24.67;14.18;;;10.70;67.20;;;;;;5095930;28;20410;-21
2022/03/30 00:26:37;;;;;;;22.83;14.25;;;10.60;66.60;;;;;;5095926;28;20089;-21
2022/03/30 00:29:04;;;;;;;26.75;15.45;;;10.60;67.80;;;;;;5095885;28;20483;-21
2022/03/30 00:31:32;;;;;;;26.15;14.50;;;10.60;67.40;;;;;;5095924;28;20023;-21
2022/03/30 00:33:57;;;;;;;27.20;14.88;;;10.60;67.50;;;;;;5095453;28;20024;-21
2022/03/30 00:36:23;;;;;;;26.42;16.27;;;10.60;67.00;;;;;;5095234;28;20069;-21
2022/03/30 00:38:49;;;;;;;29.70;16.58;;;10.60;68.10;;;;;;5095411;28;20115;-21
2022/03/30 00:41:15;;;;;;;20.80;11.88;;;10.60;68.30;;;;;;5095738;28;20024;-21
2022/03/30 00:43:41;;;;;;;22.77;12.82;;;10.60;67.40;;;;;;5095677;28;20446;-21
2022/03/30 00:46:13;;;;;;;20.27;11.85;;;10.60;67.60;;;;;;5095232;28;20028;-21
2022/03/30 00:48:42;;;;;;;23.92;15.30;;;10.50;67.80;;;;;;5095204;28;20130;-22
2022/03/30 00:51:09;;;;;;;27.20;15.60;;;10.50;68.20;;;;;;5095168;28;20511;-21
2022/03/30 00:53:34;;;;;;;30.23;16.52;;;10.50;67.90;;;;;;5095551;28;20039;-21
2022/03/30 00:56:01;;;;;;;27.63;14.07;;;10.40;68.00;;;;;;5095364;28;20017;-21
2022/03/30 00:58:29;;;;;;;22.35;13.52;;;10.40;68.10;;;;;;5094558;28;20028;-21
2022/03/30 01:00:57;;;;;;;18.02;10.27;;;10.40;68.50;;;;;;5095281;28;20032;-21
2022/03/30 01:03:23;;;;;;;20.27;12.45;;;10.40;68.10;;;;;;5094819;28;20136;-21
2022/03/30 01:05:49;;;;;;;22.15;12.48;;;10.40;68.40;;;;;;5094931;28;20031;-21
2022/03/30 01:08:15;;;;;;;16.98;9.75;;;10.50;68.90;;;;;;5094851;28;20117;-22
2022/03/30 01:10:41;;;;;;;23.38;13.10;;;10.50;68.10;;;;;;5094825;28;20028;-22
2022/03/30 01:13:07;;;;;;;20.58;12.00;;;10.40;67.80;;;;;;5095090;28;20023;-21
2022/03/30 01:15:34;;;;;;;21.98;12.55;;;10.50;68.20;;;;;;5095091;28;20460;-21
2022/03/30 01:18:00;;;;;;;19.88;11.15;;;10.50;68.10;;;;;;5094890;28;20059;-21
2022/03/30 01:20:26;;;;;;;18.77;10.52;;;10.40;67.60;;;;;;5094553;28;20481;-21
2022/03/30 01:22:52;;;;;;;17.83;9.40;;;10.40;68.10;;;;;;5094521;28;20549;-21
2022/03/30 01:25:18;;;;;;;17.50;9.20;;;10.40;67.70;;;;;;5093266;28;20024;-21
2022/03/30 01:27:44;;;;;;;19.13;10.65;;;10.40;67.60;;;;;;5094782;28;20081;-21
2022/03/30 01:33:04;;;;;;;21.48;10.18;;;10.30;67.90;;;;;;5094693;28;20054;-21
2022/03/30 01:35:30;;;;;;;21.52;11.93;;;10.30;67.40;;;;;;5094676;28;20120;-21
2022/03/30 01:37:57;;;;;;;17.88;9.77;;;10.30;67.00;;;;;;5094325;28;20035;-21
2022/03/30 01:40:23;;;;;;;17.42;10.45;;;10.30;67.20;;;;;;5094128;28;20027;-21
2022/03/30 01:42:49;;;;;;;19.88;10.82;;;10.20;67.70;;;;;;5094104;28;20419;-21
2022/03/30 01:45:16;;;;;;;20.83;9.98;;;10.30;67.70;;;;;;5094378;28;20028;-21
2022/03/30 01:48:02;;;;;;;12.40;7.25;;;10.20;67.30;;;;;;5094347;28;20032;-21
2022/03/30 01:50:31;;;;;;;14.52;8.52;;;10.30;67.20;;;;;;5093698;28;20032;-21
2022/03/30 01:52:59;;;;;;;11.25;7.00;;;10.30;67.30;;;;;;5094048;28;20115;-21
2022/03/30 01:55:25;;;;;;;12.45;7.45;;;10.20;66.80;;;;;;5094367;28;20122;-21
2022/03/30 01:57:51;;;;;;;13.55;7.68;;;10.20;66.70;;;;;;5094167;28;20533;-21
2022/03/30 02:00:19;;;;;;;13.73;7.88;;;10.20;66.40;;;;;;5093615;28;20024;-21
2022/03/30 02:02:46;;;;;;;12.43;6.43;;;10.20;66.90;;;;;;5093634;28;20485;-21
2022/03/30 02:05:12;;;;;;;12.23;5.85;;;10.20;66.70;;;;;;5094567;28;20059;-21
2022/03/30 02:07:39;;;;;;;13.77;8.25;;;10.20;66.50;;;;;;5093737;28;20384;-21
2022/03/30 02:10:08;;;;;;;13.15;7.00;;;10.20;66.40;;;;;;5093497;28;20377;-21
2022/03/30 02:12:34;;;;;;;11.80;7.50;;;10.20;66.50;;;;;;5093416;28;20035;-21
2022/03/30 02:15:00;;;;;;;9.73;6.20;;;10.20;66.90;;;;;;5094269;28;20028;-21
2022/03/30 02:17:27;;;;;;;10.93;6.22;;;10.20;66.70;;;;;;5093859;28;20053;-21
2022/03/30 02:19:56;;;;;;;13.45;8.27;;;10.20;66.90;;;;;;5093547;28;20028;-21
2022/03/30 02:22:22;;;;;;;10.02;6.28;;;10.10;66.70;;;;;;5093304;28;20387;-21
2022/03/30 02:24:50;;;;;;;13.57;6.25;;;10.20;66.50;;;;;;5093490;28;20028;-21
2022/03/30 02:27:19;;;;;;;14.23;9.23;;;10.20;66.70;;;;;;5093377;28;20506;-21
2022/03/30 02:29:49;;;;;;;12.93;6.53;;;10.20;66.80;;;;;;5093431;28;20052;-21
2022/03/30 02:32:16;;;;;;;9.90;5.30;;;10.20;66.70;;;;;;5091898;28;20050;-21
2022/03/30 02:34:43;;;;;;;10.73;6.28;;;10.20;66.60;;;;;;5093409;28;20527;-21
2022/03/30 02:37:10;;;;;;;11.60;7.35;;;10.20;66.40;;;;;;5093652;28;20020;-21
2022/03/30 02:39:37;;;;;;;8.85;5.72;;;10.20;66.50;;;;;;5093581;28;20051;-21
2022/03/30 02:42:03;;;;;;;14.40;8.10;;;10.20;66.30;;;;;;5093278;28;20429;-21
2022/03/30 02:44:29;;;;;;;19.42;10.38;;;10.20;67.10;;;;;;5093013;28;20024;-21
2022/03/30 02:46:55;;;;;;;18.67;10.65;;;10.30;67.10;;;;;;5093144;28;20028;-21
2022/03/30 02:49:21;;;;;;;14.88;8.90;;;10.30;66.60;;;;;;5093135;28;20423;-21
2022/03/30 02:51:47;;;;;;;15.10;9.02;;;10.30;66.50;;;;;;5093372;28;20062;-21
2022/03/30 02:54:13;;;;;;;11.93;7.20;;;10.30;66.90;;;;;;5092960;28;20055;-21
2022/03/30 02:56:40;;;;;;;14.13;7.53;;;10.30;67.20;;;;;;5093126;28;20086;-21
2022/03/30 02:59:06;;;;;;;10.75;6.18;;;10.30;66.80;;;;;;5093120;28;20028;-21
2022/03/30 03:01:32;;;;;;;9.93;5.05;;;10.30;66.90;;;;;;5092868;28;20131;-21
2022/03/30 03:03:58;;;;;;;9.27;5.22;;;10.40;66.80;;;;;;5093072;28;20480;-21
2022/03/30 03:06:25;;;;;;;13.82;7.55;;;10.40;66.70;;;;;;5093078;28;20036;-21
2022/03/30 03:08:51;;;;;;;9.13;5.43;;;10.40;67.10;;;;;;5093292;28;20055;-21
2022/03/30 03:11:18;;;;;;;20.70;10.60;;;10.40;66.80;;;;;;5093555;28;20471;-21
2022/03/30 03:13:43;;;;;;;10.85;5.75;;;10.40;67.10;;;;;;5092996;28;20024;-21
2022/03/30 03:16:12;;;;;;;11.95;5.60;;;10.40;67.00;;;;;;5091782;28;20020;-21
2022/03/30 03:18:39;;;;;;;10.25;5.80;;;10.40;66.90;;;;;;5092735;28;20039;-21
2022/03/30 03:21:05;;;;;;;13.55;6.55;;;10.40;66.90;;;;;;5092939;28;20553;-21
2022/03/30 03:23:31;;;;;;;16.13;7.30;;;10.50;67.20;;;;;;5096711;28;20048;-21
2022/03/30 03:25:57;;;;;;;10.40;5.80;;;10.50;67.00;;;;;;5095634;28;20090;-21
2022/03/30 03:28:23;;;;;;;14.85;7.82;;;10.60;67.20;;;;;;5095436;28;20105;-21
2022/03/30 03:30:49;;;;;;;13.23;6.30;;;10.60;67.10;;;;;;5097032;28;20173;-21
2022/03/30 03:33:17;;;;;;;12.68;6.82;;;10.60;66.80;;;;;;5095418;28;20029;-21
2022/03/30 03:35:42;;;;;;;19.08;9.00;;;10.70;66.80;;;;;;5096913;28;20523;-21
2022/03/30 03:38:09;;;;;;;11.30;5.68;;;10.70;66.90;;;;;;5096609;28;20032;-21
2022/03/30 03:40:36;;;;;;;10.00;5.45;;;10.80;67.40;;;;;;5096691;28;20027;-21
2022/03/30 03:43:04;;;;;;;7.45;4.55;;;10.80;67.00;;;;;;5097570;28;20448;-21
2022/03/30 03:45:31;;;;;;;9.45;5.70;;;10.80;66.60;;;;;;5096750;28;20036;-21
2022/03/30 03:47:57;;;;;;;11.02;5.22;;;10.80;67.10;;;;;;5096344;28;20032;-21
2022/03/30 03:50:25;;;;;;;10.98;4.93;;;10.80;66.80;;;;;;5096464;28;20028;-21
2022/03/30 03:52:51;;;;;;;12.85;6.93;;;10.90;66.40;;;;;;5096332;28;20032;-21
2022/03/30 03:55:17;;;;;;;18.40;8.63;;;10.80;66.30;;;;;;5096243;28;20016;-21
2022/03/30 03:57:43;;;;;;;9.98;5.93;;;10.90;66.40;;;;;;5096236;28;20028;-21
2022/03/30 04:00:11;;;;;;;18.65;10.38;;;10.90;66.80;;;;;;5096502;28;20073;-21
2022/03/30 04:02:37;;;;;;;12.63;6.43;;;10.80;66.90;;;;;;5095719;28;20048;-21
2022/03/30 04:05:03;;;;;;;13.95;8.85;;;10.80;66.70;;;;;;5096344;28;20115;-21
2022/03/30 04:07:32;;;;;;;11.35;6.60;;;10.80;66.70;;;;;;5096407;28;20024;-21
2022/03/30 04:09:58;;;;;;;14.32;7.40;;;10.80;66.70;;;;;;5096024;28;20032;-21
2022/03/30 04:12:23;;;;;;;15.50;8.15;;;10.80;66.30;;;;;;5095797;28;20043;-21
2022/03/30 04:14:49;;;;;;;20.92;10.73;;;10.80;66.60;;;;;;5096341;28;20024;-21
2022/03/30 04:17:15;;;;;;;11.70;7.10;;;10.80;66.90;;;;;;5094596;28;20078;-21
2022/03/30 04:19:41;;;;;;;22.98;12.02;;;10.70;66.90;;;;;;5096194;28;20059;-21
2022/03/30 04:22:07;;;;;;;17.73;8.43;;;10.80;67.40;;;;;;5095959;28;20028;-21
2022/03/30 04:24:33;;;;;;;17.85;11.02;;;10.70;67.60;;;;;;5095672;28;20032;-21
2022/03/30 04:26:59;;;;;;;13.35;8.02;;;10.70;67.90;;;;;;5095642;28;20032;-21
2022/03/30 04:29:25;;;;;;;17.95;9.68;;;10.70;67.50;;;;;;5095645;28;20024;-21
2022/03/30 04:31:52;;;;;;;12.65;6.80;;;10.80;68.80;;;;;;5095573;28;20020;-21
2022/03/30 04:34:18;;;;;;;11.70;6.85;;;10.70;67.40;;;;;;5095496;28;20484;-21
2022/03/30 04:36:44;;;;;;;17.65;8.48;;;10.80;67.00;;;;;;5095463;28;20031;-21
2022/03/30 04:39:10;;;;;;;15.10;8.30;;;10.80;67.40;;;;;;5094323;28;20028;-21
2022/03/30 04:41:36;;;;;;;20.10;11.13;;;10.80;66.70;;;;;;5095696;28;20024;-21
2022/03/30 04:44:02;;;;;;;17.23;10.32;;;10.80;66.90;;;;;;5095331;28;20069;-21
2022/03/30 04:46:28;;;;;;;15.02;8.52;;;10.80;67.10;;;;;;5095052;28;20041;-21
2022/03/30 04:48:53;;;;;;;15.63;7.95;;;10.80;67.20;;;;;;5095451;28;20039;-21
2022/03/30 04:51:19;;;;;;;16.17;8.95;;;10.80;67.30;;;;;;5095583;28;20516;-21
2022/03/30 04:53:45;;;;;;;14.43;8.38;;;10.80;67.40;;;;;;5093923;28;20384;-21
2022/03/30 04:56:11;;;;;;;23.10;12.77;;;10.80;67.20;;;;;;5095452;28;20021;-21
2022/03/30 04:58:37;;;;;;;15.95;9.07;;;10.80;67.70;;;;;;5094849;28;20399;-21
2022/03/30 05:01:03;;;;;;;18.85;9.38;;;10.80;67.40;;;;;;5095310;28;20020;-21
2022/03/30 05:03:29;;;;;;;15.23;8.13;;;10.80;67.40;;;;;;5094752;28;20077;-21
2022/03/30 05:05:54;;;;;;;17.83;10.15;;;10.80;67.30;;;;;;5094843;28;20032;-21
2022/03/30 05:08:20;;;;;;;16.95;9.90;;;10.80;67.30;;;;;;5095106;28;20031;-22
2022/03/30 05:10:50;;;;;;;15.60;8.77;;;10.80;67.20;;;;;;5094772;28;20503;-21
2022/03/30 05:13:16;;;;;;;26.92;14.10;;;10.80;66.60;;;;;;5095636;28;20028;-21
2022/03/30 05:15:42;;;;;;;26.55;13.27;;;10.90;66.90;;;;;;5094722;28;20024;-21
2022/03/30 05:18:08;;;;;;;20.85;11.43;;;10.90;67.40;;;;;;5094980;28;20074;-21
2022/03/30 05:20:34;;;;;;;22.13;12.93;;;10.90;67.40;;;;;;5094830;28;20035;-21
2022/03/30 05:23:00;;;;;;;15.70;9.05;;;10.90;67.00;;;;;;5094916;28;20067;-21
2022/03/30 05:25:26;;;;;;;17.65;9.52;;;10.90;67.00;;;;;;5094791;28;20056;-21
2022/03/30 05:27:52;;;;;;;17.40;9.25;;;10.90;66.80;;;;;;5094805;28;20024;-21
2022/03/30 05:30:17;;;;;;;18.58;10.30;;;10.90;66.90;;;;;;5094242;28;20020;-21
2022/03/30 05:32:45;;;;;;;18.40;10.55;;;10.90;66.90;;;;;;5094744;28;20032;-21
2022/03/30 05:35:13;;;;;;;14.30;8.43;;;10.90;67.10;;;;;;5094640;28;20032;-21
2022/03/30 05:37:39;;;;;;;13.32;7.68;;;10.90;66.90;;;;;;5094593;28;20027;-21
2022/03/30 05:40:07;;;;;;;12.57;6.78;;;10.90;66.70;;;;;;5094625;28;20024;-21
2022/03/30 05:42:34;;;;;;;19.60;9.40;;;11.00;66.70;;;;;;5094007;28;20480;-21
2022/03/30 05:45:00;;;;;;;11.02;6.50;;;10.90;66.90;;;;;;5093923;28;20031;-21
2022/03/30 05:47:28;;;;;;;13.43;7.28;;;11.00;66.70;;;;;;5094374;28;20438;-21
2022/03/30 05:49:53;;;;;;;12.85;7.05;;;11.00;66.30;;;;;;5094142;28;20027;-21
2022/03/30 05:52:19;;;;;;;10.38;6.53;;;11.00;66.50;;;;;;5094170;28;20024;-21
2022/03/30 05:54:45;;;;;;;11.43;6.53;;;11.10;66.40;;;;;;5093979;28;20101;-21
2022/03/30 05:57:11;;;;;;;12.18;6.57;;;11.10;66.40;;;;;;5092711;28;20024;-21
2022/03/30 05:59:42;;;;;;;15.65;9.32;;;11.10;66.30;;;;;;5093947;28;20396;-21
2022/03/30 06:02:10;;;;;;;23.27;11.07;;;11.20;66.10;;;;;;5093875;28;20040;-21
2022/03/30 06:04:38;;;;;;;11.73;7.03;;;11.20;66.40;;;;;;5093609;28;20394;-21
2022/03/30 06:07:04;;;;;;;12.02;6.85;;;11.20;66.60;;;;;;5093994;28;20092;-21
2022/03/30 06:09:34;;;;;;;12.07;7.55;;;11.20;66.60;;;;;;5093777;28;20421;-21
2022/03/30 06:12:04;;;;;;;8.23;5.30;;;11.30;66.60;;;;;;5093749;28;20020;-21
2022/03/30 06:14:33;;;;;;;13.07;7.57;;;11.40;66.30;;;;;;5093498;28;20495;-21
2022/03/30 06:17:03;;;;;;;11.13;5.82;;;11.40;66.00;;;;;;5093644;28;20031;-21
2022/03/30 06:19:31;;;;;;;10.85;6.93;;;11.50;65.90;;;;;;5093869;28;20028;-21
2022/03/30 06:21:58;;;;;;;12.00;6.57;;;11.50;65.80;;;;;;5093940;28;20024;-21
2022/03/30 06:24:24;;;;;;;15.32;8.38;;;11.60;65.80;;;;;;5093717;28;20074;-21
2022/03/30 06:26:50;;;;;;;12.23;6.50;;;11.60;65.80;;;;;;5094116;28;20032;-21
2022/03/30 06:29:16;;;;;;;15.38;7.47;;;11.60;65.60;;;;;;5093443;28;20395;-21
2022/03/30 06:31:43;;;;;;;10.57;6.15;;;11.70;65.70;;;;;;5094056;28;20030;-21
2022/03/30 06:34:09;;;;;;;16.50;9.13;;;11.70;65.70;;;;;;5093496;28;20024;-21
2022/03/30 06:36:37;;;;;;;14.18;6.65;;;11.80;65.60;;;;;;5093498;28;20106;-21
2022/03/30 06:39:05;;;;;;;12.55;6.88;;;11.80;65.60;;;;;;5093671;28;20031;-21
2022/03/30 06:41:31;;;;;;;10.40;6.15;;;11.90;65.50;;;;;;5093320;28;20020;-22
2022/03/30 06:43:57;;;;;;;16.10;8.68;;;11.90;65.50;;;;;;5093264;28;20403;-21
2022/03/30 06:46:23;;;;;;;12.38;7.35;;;11.90;65.50;;;;;;5093052;28;20028;-21
2022/03/30 06:48:49;;;;;;;10.52;6.70;;;11.90;65.60;;;;;;5093463;28;20031;-21
2022/03/30 06:51:16;;;;;;;15.07;8.32;;;12.00;65.40;;;;;;5093190;28;20024;-21
2022/03/30 06:53:42;;;;;;;14.43;8.07;;;12.00;65.30;;;;;;5093496;28;20035;-21
2022/03/30 06:56:09;;;;;;;14.50;7.47;;;12.10;65.30;;;;;;5093456;28;20095;-21
2022/03/30 06:58:35;;;;;;;11.18;6.97;;;12.20;65.30;;;;;;5097276;28;20028;-21
2022/03/30 07:01:02;;;;;;;10.80;6.20;;;12.20;65.00;;;;;;5097670;28;20020;-20
2022/03/30 07:03:28;;;;;;;12.68;7.82;;;12.30;64.90;;;;;;5097063;28;20052;-21
2022/03/30 07:05:55;;;;;;;13.68;7.80;;;12.40;65.00;;;;;;5097204;28;20036;-21
2022/03/30 07:11:09;;;;;;;9.32;4.95;;;12.40;65.10;;;;;;5097289;28;20035;-20
2022/03/30 07:13:35;;;;;;;12.40;7.20;;;12.50;64.80;;;;;;5097105;28;20481;-21
2022/03/30 07:16:02;;;;;;;10.88;6.88;;;12.50;64.80;;;;;;5097396;28;20024;-20
2022/03/30 07:18:28;;;;;;;9.73;6.15;;;12.60;65.20;;;;;;5096942;28;20511;-21
2022/03/30 07:20:55;;;;;;;15.05;9.27;;;12.70;65.00;;;;;;5096991;28;20048;-20
2022/03/30 07:23:23;;;;;;;15.18;8.77;;;12.70;64.60;;;;;;5096971;28;20103;-21
2022/03/30 07:25:50;;;;;;;16.13;7.95;;;12.80;64.60;;;;;;5097143;28;20476;-20
2022/03/30 07:28:16;;;;;;;12.13;7.18;;;12.80;64.80;;;;;;5095437;28;20028;-21
2022/03/30 07:30:45;;;;;;;20.17;11.77;;;12.90;64.60;;;;;;5096742;28;20035;-20
2022/03/30 07:33:12;;;;;;;17.50;9.90;;;12.90;65.10;;;;;;5096626;28;20024;-20
2022/03/30 07:35:45;;;;;;;16.60;9.80;;;13.00;64.80;;;;;;5096963;28;20074;-20
2022/03/30 07:38:14;;;;;;;23.50;11.75;;;13.10;65.40;;;;;;5096739;28;20028;-20
2022/03/30 07:40:41;;;;;;;18.98;10.57;;;13.20;65.40;;;;;;5096908;28;20037;-20
2022/03/30 07:43:09;;;;;;;16.98;9.43;;;13.20;65.40;;;;;;5096537;28;20038;-20
2022/03/30 07:45:35;;;;;;;17.10;9.02;;;13.30;65.20;;;;;;5096411;28;20036;-21
2022/03/30 07:48:01;;;;;;;15.98;9.55;;;13.40;64.60;;;;;;5096363;28;20495;-20
2022/03/30 07:50:28;;;;;;;17.55;9.75;;;13.40;65.10;;;;;;5096167;28;20029;-21
2022/03/30 07:52:53;;;;;;;17.05;8.95;;;13.50;65.10;;;;;;5096381;28;20032;-21
2022/03/30 07:55:19;;;;;;;16.23;9.23;;;13.60;64.80;;;;;;5096390;28;20016;-21
2022/03/30 07:57:45;;;;;;;15.43;9.75;;;13.60;64.20;;;;;;5095021;28;20028;-20
2022/03/30 08:00:17;;;;;;;17.88;9.88;;;13.60;64.80;;;;;;5096290;28;20028;-20
2022/03/30 08:02:45;;;;;;;16.77;8.65;;;13.70;64.60;;;;;;5095983;28;20054;-21
2022/03/30 08:05:13;;;;;;;11.77;7.53;;;13.70;64.00;;;;;;5096371;28;20027;-21
2022/03/30 08:07:44;;;;;;;13.13;7.43;;;13.80;64.10;;;;;;5095666;28;20028;-20
2022/03/30 08:10:11;;;;;;;15.50;8.23;;;13.80;64.10;;;;;;5096375;28;20032;-21
2022/03/30 08:12:39;;;;;;;12.10;6.97;;;13.80;63.90;;;;;;5095788;28;20032;-21
2022/03/30 08:15:07;;;;;;;18.35;10.75;;;13.90;63.80;;;;;;5096771;28;20085;-21
2022/03/30 08:17:33;;;;;;;24.23;12.90;;;13.90;64.00;;;;;;5095853;28;20028;-21
2022/03/30 08:19:59;;;;;;;19.98;11.13;;;13.90;64.10;;;;;;5096009;28;20020;-21
2022/03/30 08:22:25;;;;;;;19.80;10.18;;;13.90;64.50;;;;;;5095074;28;20028;-21
2022/03/30 08:25:07;;;;;;;17.13;9.55;;;13.90;64.10;;;;;;5096103;28;20028;-21
2022/03/30 08:27:35;;;;;;;13.75;7.28;;;13.90;64.30;;;;;;5096104;28;20040;-21
2022/03/30 08:30:02;;;;;;;12.65;7.80;;;13.90;63.70;;;;;;5096324;28;20035;-21
2022/03/30 08:32:28;;;;;;;14.45;8.23;;;14.00;63.80;;;;;;5095324;28;20392;-21
2022/03/30 08:34:56;;;;;;;19.38;10.25;;;14.00;63.70;;;;;;5096194;28;20653;-21
2022/03/30 08:37:22;;;;;;;13.73;8.52;;;14.10;63.70;;;;;;5095531;28;20046;-20
2022/03/30 08:39:49;;;;;;;15.43;8.95;;;14.10;64.10;;;;;;5095824;28;20032;-21
2022/03/30 08:42:17;;;;;;;14.65;7.50;;;14.10;63.90;;;;;;5095578;28;20035;-20
2022/03/30 08:44:46;;;;;;;16.10;9.02;;;14.20;63.80;;;;;;5095701;28;20054;-21
2022/03/30 08:47:13;;;;;;;11.52;6.90;;;14.20;63.70;;;;;;5095508;28;20035;-21
2022/03/30 08:49:39;;;;;;;16.55;9.20;;;14.20;63.40;;;;;;5095215;28;20039;-20
2022/03/30 08:52:09;;;;;;;15.65;9.10;;;14.30;63.60;;;;;;5095232;28;20032;-20
2022/03/30 08:54:36;;;;;;;16.60;9.25;;;14.30;63.40;;;;;;5095354;28;20028;-21
2022/03/30 08:57:04;;;;;;;20.80;11.18;;;14.30;63.60;;;;;;5095393;28;20016;-20
2022/03/30 08:59:30;;;;;;;21.13;10.20;;;14.40;63.50;;;;;;5095155;28;20488;-21
2022/03/30 09:01:57;;;;;;;16.85;9.93;;;14.40;64.10;;;;;;5095027;28;20097;-20
2022/03/30 09:04:25;;;;;;;20.08;10.93;;;14.40;64.20;;;;;;5094746;28;20032;-21
2022/03/30 09:06:57;;;;;;;20.55;10.85;;;14.50;64.50;;;;;;5094881;28;20036;-20
2022/03/30 09:09:38;;;;;;;22.20;12.00;;;14.60;64.10;;;;;;5095408;28;20063;-21
2022/03/30 09:12:10;;;;;;;20.50;11.13;;;14.60;64.60;;;;;;5094874;28;20067;-20
2022/03/30 09:14:39;;;;;;;21.67;9.73;;;14.70;64.20;;;;;;5094583;28;20058;-21
2022/03/30 09:17:09;;;;;;;21.75;10.68;;;14.80;63.90;;;;;;5095025;28;20427;-21
2022/03/30 09:19:40;;;;;;;18.58;10.40;;;14.90;63.50;;;;;;5092602;28;20032;-21
2022/03/30 09:22:09;;;;;;;19.13;10.43;;;14.90;63.60;;;;;;5094661;28;20034;-21
2022/03/30 09:24:38;;;;;;;19.98;10.02;;;15.00;63.20;;;;;;5094622;28;20043;-21
2022/03/30 09:27:07;;;;;;;23.08;10.90;;;15.00;63.10;;;;;;5094646;28;20052;-21
2022/03/30 09:29:37;;;;;;;17.23;9.65;;;15.10;62.70;;;;;;5094652;28;20093;-21
2022/03/30 09:32:07;;;;;;;19.35;10.98;;;15.20;62.40;;;;;;5094661;28;20021;-21
2022/03/30 09:34:35;;;;;;;20.35;11.95;;;15.30;62.30;;;;;;5094496;28;20024;-19
2022/03/30 09:37:02;;;;;;;22.17;11.40;;;15.40;61.80;;;;;;5094602;28;20016;-40
2022/03/30 09:39:33;;;;;;;22.42;12.00;;;15.40;61.70;;;;;;5092348;28;20073;-21
2022/03/30 09:42:02;;;;;;;20.08;12.38;;;15.40;61.30;;;;;;5094706;28;20016;-39
2022/03/30 09:44:29;;;;;;;23.90;12.88;;;15.40;60.60;;;;;;5093897;28;20089;-34
2022/03/30 09:47:06;;;;;;;26.27;13.05;;;15.30;60.90;;;;;;5091881;28;20637;-32
2022/03/30 09:49:33;;;;;;;23.85;14.25;;;15.50;61.10;;;;;;5093930;28;20025;-37
2022/03/30 09:52:00;;;;;;;22.52;12.90;;;15.60;61.90;;;;;;5094010;28;20032;-26
2022/03/30 09:54:40;;;;;;;23.63;11.23;;;15.60;60.40;;;;;;5092544;28;20028;-16
2022/03/30 09:57:36;;;;;;;20.73;12.43;;;15.70;59.50;;;;;;5093843;28;20391;-12
2022/03/30 10:00:10;;;;;;;25.88;13.32;;;15.60;59.70;;;;;;5093770;28;20036;-11
2022/03/30 10:02:41;;;;;;;20.48;11.90;;;15.50;59.90;;;;;;5093460;28;20135;-12
2022/03/30 10:05:21;;;;;;;26.40;13.00;;;15.30;60.20;;;;;;5094109;28;20036;-11
2022/03/30 10:07:49;;;;;;;23.20;12.63;;;15.20;60.50;;;;;;5094413;28;20025;-11
2022/03/30 10:10:19;;;;;;;23.42;12.52;;;15.00;61.20;;;;;;5093792;28;20051;-11
2022/03/30 10:12:45;;;;;;;22.55;12.00;;;14.90;61.70;;;;;;5094027;28;20031;-11
2022/03/30 10:15:12;;;;;;;27.45;12.93;;;14.80;61.70;;;;;;5093933;28;20420;-12
2022/03/30 10:17:39;;;;;;;24.00;13.25;;;14.90;62.50;;;;;;5093864;28;20074;-12
2022/03/30 10:20:07;;;;;;;22.00;11.13;;;14.90;61.70;;;;;;5093545;28;20024;-11
2022/03/30 10:22:45;;;;;;;24.95;9.98;;;14.90;60.90;;;;;;5093288;28;20024;-11
2022/03/30 10:25:20;;;;;;;24.27;12.52;;;15.00;60.40;;;;;;5094108;28;20028;-11
2022/03/30 10:27:54;;;;;;;20.23;10.65;;;15.10;61.10;;;;;;5093739;28;20051;-11
2022/03/30 10:30:26;;;;;;;24.13;11.43;;;15.30;60.40;;;;;;5093242;28;20020;-11
2022/03/30 10:32:59;;;;;;;22.35;11.38;;;15.40;60.30;;;;;;5093601;28;20028;-11
2022/03/30 10:35:46;;;;;;;21.85;12.38;;;15.50;59.90;;;;;;5093306;28;20498;-12
2022/03/30 10:38:13;;;;;;;22.08;12.57;;;15.60;59.60;;;;;;5093337;28;20054;-11
2022/03/30 10:40:40;;;;;;;18.95;12.18;;;15.60;59.10;;;;;;5091897;28;20027;-11
2022/03/30 10:43:10;;;;;;;18.65;11.50;;;15.70;57.90;;;;;;5093322;28;20027;-11
2022/03/30 10:45:43;;;;;;;22.85;12.90;;;15.60;58.60;;;;;;5093384;28;20058;-11
2022/03/30 10:48:22;;;;;;;20.85;12.57;;;15.60;59.20;;;;;;5093030;28;20024;-11
2022/03/30 10:50:51;;;;;;;20.95;11.82;;;15.60;59.00;;;;;;5093624;28;20032;-11
2022/03/30 10:53:34;;;;;;;23.67;13.35;;;15.50;59.20;;;;;;5093214;28;20028;-12
2022/03/30 10:56:09;;;;;;;21.60;12.57;;;15.50;59.10;;;;;;5093702;28;20025;-11
2022/03/30 10:58:37;;;;;;;24.17;13.50;;;15.30;58.80;;;;;;5093196;28;20111;-12
2022/03/30 11:01:28;;;;;;;19.85;12.45;;;15.10;58.90;;;;;;5093122;28;20028;-12
2022/03/30 11:04:10;;;;;;;21.67;12.52;;;14.90;60.30;;;;;;5093412;28;20126;-11
2022/03/30 11:06:39;;;;;;;27.23;13.70;;;14.90;60.10;;;;;;5093102;28;20035;-12
2022/03/30 11:09:08;;;;;;;26.35;12.70;;;14.80;61.90;;;;;;5093451;28;20430;-12
2022/03/30 11:11:39;;;;;;;25.10;14.60;;;14.80;63.00;;;;;;5093204;28;20085;-12
2022/03/30 11:14:31;;;;;;;24.83;12.68;;;14.70;64.40;;;;;;5093060;28;20476;-11
2022/03/30 11:17:03;;;;;;;27.60;15.13;;;14.70;65.40;;;;;;5092929;28;20031;-11
2022/03/30 11:19:56;;;;;;;33.70;15.68;;;14.70;67.40;;;;;;5092815;28;20428;-12
2022/03/30 11:22:26;;;;;;;31.33;16.37;;;14.60;67.30;;;;;;5092420;28;20365;-12
2022/03/30 11:25:13;;;;;;;25.88;16.35;;;14.50;69.10;;;;;;5092930;28;20094;-12
2022/03/30 11:27:41;;;;;;;30.20;15.95;;;14.40;69.00;;;;;;5092874;28;20392;-12
2022/03/30 11:30:18;;;;;;;26.65;16.98;;;14.30;69.90;;;;;;5093149;28;20055;-12
2022/03/30 11:33:14;;;;;;;36.53;18.27;;;14.00;71.10;;;;;;5093295;28;20020;-13
2022/03/30 11:35:43;;;;;;;24.42;16.08;;;13.80;72.40;;;;;;5090851;28;20116;-12
2022/03/30 11:38:11;;;;;;;30.05;16.92;;;13.80;71.60;;;;;;5090885;28;20041;-12
2022/03/30 11:40:44;;;;;;;29.05;16.70;;;13.80;71.70;;;;;;5090606;28;20070;-12
2022/03/30 11:43:12;;;;;;;27.70;16.30;;;13.80;72.70;;;;;;5092560;28;20490;-12
2022/03/30 11:45:38;;;;;;;33.40;16.52;;;13.80;72.20;;;;;;5094415;28;20609;-12
2022/03/30 11:48:07;;;;;;;29.63;16.25;;;13.80;72.40;;;;;;5094523;28;20036;-12
2022/03/30 11:50:42;;;;;;;26.70;14.90;;;13.90;73.00;;;;;;5094241;28;20480;-12
2022/03/30 11:53:12;;;;;;;27.92;15.40;;;14.00;72.00;;;;;;5094725;28;20119;-13
2022/03/30 11:56:05;;;;;;;27.13;14.82;;;14.10;71.70;;;;;;5094402;28;20024;-11
2022/03/30 11:58:32;;;;;;;26.58;13.60;;;14.30;70.40;;;;;;5094118;28;20361;-12
2022/03/30 12:01:00;;;;;;;26.70;14.95;;;14.40;70.70;;;;;;5094373;28;20035;-12
2022/03/30 12:03:27;;;;;;;23.77;12.10;;;14.40;70.90;;;;;;5093887;28;20059;-12
2022/03/30 12:05:57;;;;;;;26.65;13.27;;;14.40;69.80;;;;;;5094217;28;20040;-12
2022/03/30 12:08:24;;;;;;;26.25;14.35;;;14.50;69.00;;;;;;5094005;28;20442;-11
2022/03/30 12:10:56;;;;;;;24.25;13.07;;;14.50;69.90;;;;;;5094025;28;20035;-11
2022/03/30 12:13:24;;;;;;;27.30;13.30;;;14.60;70.10;;;;;;5095486;28;20110;-12
2022/03/30 12:16:15;;;;;;;25.40;13.95;;;14.70;69.30;;;;;;5096013;28;20484;-12
2022/03/30 12:18:45;;;;;;;25.70;12.82;;;14.70;69.00;;;;;;5096102;28;20028;-12
2022/03/30 12:21:18;;;;;;;23.58;13.10;;;14.60;68.80;;;;;;5096360;28;20480;-11
2022/03/30 12:23:50;;;;;;;23.13;12.77;;;14.70;69.30;;;;;;5096199;28;20020;-11
2022/03/30 12:26:16;;;;;;;21.58;13.27;;;14.80;69.10;;;;;;5095470;28;20032;-11
2022/03/30 12:28:43;;;;;;;26.70;14.30;;;14.70;70.20;;;;;;5095788;28;20028;-11
2022/03/30 12:31:10;;;;;;;27.02;12.88;;;14.70;69.70;;;;;;5096486;28;20028;-12
2022/03/30 12:33:47;;;;;;;29.52;14.60;;;14.60;69.50;;;;;;5095834;28;20028;-11
2022/03/30 12:36:18;;;;;;;23.30;13.30;;;14.70;69.80;;;;;;5095380;28;20031;-11
2022/03/30 12:38:44;;;;;;;25.35;14.05;;;14.70;70.80;;;;;;5096094;28;20448;-12
2022/03/30 12:41:21;;;;;;;23.55;14.18;;;14.80;69.90;;;;;;5096135;28;20472;-11
2022/03/30 12:44:00;;;;;;;27.20;14.52;;;14.90;70.00;;;;;;5095470;28;20428;-12
2022/03/30 12:46:30;;;;;;;27.83;13.57;;;14.90;70.40;;;;;;5095538;28;20040;-11